Startpagina
METAR-TAF:

METAR-TAF

Vliegvelden :

Pohnpei, Micronesië

breedte: 06-59N, lengte: 158-12E, hoogte: 2 m

Actueel weer

Dit bericht is 6 uur en het 5 minuten geleden gemaakt, om 03:59 UTC
Wind 2 kt uit het noorden
Temperatuur 27°C
Vochtigheid 94%
Druk 1008 hPa
Zicht: 24.1 km
Gebroken wolken op 1800 ft, Stapelwolken.
Geheel bewolkt op 30000 ft

METAR: PTPN 190359Z 01002KT 15SM BKN018TCU OVC300 27/26 A2976 RMK TCU SE-SW LAST

Tijdstip: 21:04 (10:04 UTC)

Verwachting

Dit bericht is 10 uur en het 15 minuten geleden gemaakt, om 23:49 UTC
Verwachting geldig van 19 om 00 UTC tot 19 om 24 UTC
Wind 10 kt uit het oosten
Zicht: 10 km
Verspreide wolken op 1600 ft
Verspreide wolken op 4000 ft
Gebroken wolken op 12000 ft
buien in de omgeving
Tijdelijke
van 19 om 00 UTC tot 19 om 04 UTC
Zicht: 8.0 km
Gebroken wolken op 1600 ft
Geheel bewolkt op 3000 ft
regenbuien

TAF: PTPN 182349Z 1900/1924 08010KT P6SM VCSH SCT016 SCT040 BKN120 TEMPO 1900/1904 5SM SHRA BKN016 OVC030

Waarnemingen en weersverwachtingen van meer dan 4000 vliegvelden (METAR en TAF).

De beschikbare stations zijn de gele en rode punten op de kaart.

Ga met uw muis naar het station om de naam te zien.

Klik dan om waarnemingen en weersverwachtingen te zien.

kaart wijzigen: klik op de groene knoppen met een zwart kruis om in te zoomen, op de groene knop met een streepje om uit te zoomen of op de groene pijlen voor aangrenzende kaarten.


METAR-TAF: